Time;durP1;ratioP1;P1;durP2;ratioP2;P2;SDS_P1;SDS_P2;PMS_P1;PMS_P2;Temp;Humidity;BMP_temperature;BMP_pressure;BME280_temperature;BME280_humidity;BME280_pressure;Samples;Min_cycle;Max_cycle;Signal;HPM_P1;HPM_P2
2022/05/11 00:00:44;;;;;;;14.00;4.30;;;20.00;69.60;;;;;;5033168;28;20112;-72
2022/05/11 00:03:10;;;;;;;15.02;4.57;;;19.90;70.00;;;;;;5033040;28;20463;-71
2022/05/11 00:05:36;;;;;;;11.68;4.05;;;19.90;70.00;;;;;;5032631;28;20083;-72
2022/05/11 00:08:03;;;;;;;11.23;4.20;;;19.80;70.20;;;;;;5032817;28;20022;-71
2022/05/11 00:10:30;;;;;;;11.35;3.70;;;19.80;70.60;;;;;;5033237;28;20441;-72
2022/05/11 00:12:57;;;;;;;9.93;4.07;;;19.80;70.50;;;;;;5035640;28;20044;-72
2022/05/11 00:15:24;;;;;;;13.55;3.95;;;19.80;70.40;;;;;;5036952;28;20041;-71
2022/05/11 00:17:50;;;;;;;18.83;4.40;;;19.80;70.60;;;;;;5036810;28;20528;-72
2022/05/11 00:20:17;;;;;;;11.93;4.43;;;19.70;70.30;;;;;;5036625;28;20037;-72
2022/05/11 00:22:43;;;;;;;14.48;5.47;;;19.70;70.70;;;;;;5036664;28;20025;-71
2022/05/11 00:25:10;;;;;;;12.70;4.05;;;19.70;71.00;;;;;;5036365;28;20029;-71
2022/05/11 00:27:37;;;;;;;12.02;4.05;;;19.70;71.00;;;;;;5036912;28;20532;-72
2022/05/11 00:30:03;;;;;;;10.98;4.13;;;19.60;70.90;;;;;;5036377;28;20104;-72
2022/05/11 00:32:29;;;;;;;11.55;4.50;;;19.50;71.20;;;;;;5036219;28;20086;-72
2022/05/11 00:34:55;;;;;;;12.50;4.10;;;19.40;71.60;;;;;;5036410;28;20025;-71
2022/05/11 00:37:21;;;;;;;9.63;4.30;;;19.40;71.90;;;;;;5036313;28;20048;-73
2022/05/11 00:39:47;;;;;;;11.13;3.95;;;19.30;72.20;;;;;;5036131;28;20037;-72
2022/05/11 00:42:13;;;;;;;11.27;4.25;;;19.20;72.40;;;;;;5035247;28;20488;-71
2022/05/11 00:44:39;;;;;;;11.70;4.30;;;19.30;73.10;;;;;;5035761;28;20102;-72
2022/05/11 00:47:14;;;;;;;13.70;4.75;;;19.20;73.20;;;;;;5036193;28;20092;-72
2022/05/11 00:50:00;;;;;;;11.27;4.20;;;19.20;73.20;;;;;;5036079;28;20084;-72
2022/05/11 00:52:46;;;;;;;16.60;4.30;;;19.20;74.40;;;;;;5035976;28;20155;-72
2022/05/11 00:55:24;;;;;;;13.68;4.10;;;19.10;74.60;;;;;;5036015;28;20110;-73
2022/05/11 00:58:11;;;;;;;12.48;3.72;;;19.20;74.00;;;;;;5034615;28;20025;-73
2022/05/11 01:00:37;;;;;;;10.20;3.70;;;19.10;75.10;;;;;;5035540;28;20026;-71
2022/05/11 01:03:41;;;;;;;14.60;4.20;;;19.10;74.20;;;;;;5036176;28;20090;-73
2022/05/11 01:06:10;;;;;;;12.57;4.03;;;19.10;74.10;;;;;;5013538;28;20022;-73
2022/05/11 01:08:36;;;;;;;12.48;4.05;;;19.10;74.60;;;;;;5031906;28;20038;-73
2022/05/11 01:11:03;;;;;;;10.63;4.07;;;19.00;75.10;;;;;;5034264;28;20545;-72
2022/05/11 01:13:31;;;;;;;12.30;3.92;;;19.00;75.40;;;;;;5035877;28;20419;-73
2022/05/11 01:15:59;;;;;;;13.27;4.55;;;18.90;76.20;;;;;;5034078;28;20036;-72
2022/05/11 01:18:25;;;;;;;14.18;4.00;;;18.90;76.40;;;;;;5035652;28;20033;-73
2022/05/11 01:20:52;;;;;;;14.13;4.35;;;18.90;76.90;;;;;;5035601;28;20040;-72
2022/05/11 01:23:20;;;;;;;14.40;4.25;;;19.00;77.40;;;;;;5034616;28;20024;-72
2022/05/11 01:25:46;;;;;;;13.30;4.90;;;18.90;77.80;;;;;;5033982;28;20033;-73
2022/05/11 01:28:15;;;;;;;12.23;4.50;;;18.90;78.10;;;;;;5035228;28;20363;-72
2022/05/11 01:30:43;;;;;;;11.13;3.70;;;18.90;78.30;;;;;;5035353;28;20116;-72
2022/05/11 01:39:53;;;;;;;13.15;4.32;;;18.90;79.40;;;;;;5035602;28;20410;-71
2022/05/11 01:42:20;;;;;;;10.73;4.47;;;18.90;78.70;;;;;;5035019;28;20053;-73
2022/05/11 01:44:46;;;;;;;16.98;4.68;;;18.90;78.80;;;;;;5034647;28;20048;-73
2022/05/11 01:47:12;;;;;;;16.80;4.80;;;18.90;78.80;;;;;;5034077;28;20037;-72
2022/05/11 01:49:38;;;;;;;10.85;4.40;;;18.90;79.10;;;;;;5034977;28;20013;-72
2022/05/11 01:52:04;;;;;;;15.38;4.63;;;18.90;79.30;;;;;;5033453;28;20033;-73
2022/05/11 01:54:30;;;;;;;11.15;3.97;;;18.90;79.70;;;;;;5033176;28;20109;-73
2022/05/11 01:56:56;;;;;;;13.15;4.38;;;18.80;80.20;;;;;;5034379;28;20029;-72
2022/05/11 01:59:21;;;;;;;10.38;4.25;;;18.70;80.70;;;;;;5034636;28;20386;-73
2022/05/11 02:01:47;;;;;;;10.80;4.80;;;18.70;81.30;;;;;;5034578;28;20022;-73
2022/05/11 02:09:41;;;;;;;17.65;5.40;;;18.70;82.40;;;;;;5034509;28;20033;-71
2022/05/11 02:12:09;;;;;;;12.23;5.18;;;18.60;82.20;;;;;;5034557;28;20029;-71
2022/05/11 02:14:35;;;;;;;14.00;5.35;;;18.60;82.70;;;;;;5034528;28;20025;-72
2022/05/11 02:17:02;;;;;;;11.32;4.88;;;18.60;82.50;;;;;;5034261;28;20057;-72
2022/05/11 02:19:29;;;;;;;15.77;4.70;;;18.60;82.60;;;;;;5034137;28;20033;-71
2022/05/11 02:21:55;;;;;;;11.52;4.57;;;18.60;82.70;;;;;;5034223;28;20026;-71
2022/05/11 02:24:21;;;;;;;12.00;4.32;;;18.60;83.10;;;;;;5034103;28;20037;-71
2022/05/11 02:26:47;;;;;;;11.45;4.35;;;18.60;82.80;;;;;;5034208;28;20021;-73
2022/05/11 02:29:13;;;;;;;15.55;4.75;;;18.60;83.10;;;;;;5034140;28;20045;-72
2022/05/11 02:31:39;;;;;;;12.20;4.70;;;18.60;83.40;;;;;;5034186;28;20018;-72
2022/05/11 02:34:06;;;;;;;14.90;4.75;;;18.50;83.90;;;;;;5033943;28;20034;-72
2022/05/11 02:36:35;;;;;;;16.50;4.80;;;18.50;84.10;;;;;;5032600;28;20134;-72
2022/05/11 02:39:01;;;;;;;13.10;5.07;;;18.40;84.60;;;;;;5033734;28;20467;-72
2022/05/11 02:41:27;;;;;;;15.43;4.75;;;18.40;84.50;;;;;;5033948;28;20151;-72
2022/05/11 02:43:52;;;;;;;13.65;4.55;;;18.50;84.80;;;;;;5034142;28;20068;-73
2022/05/11 02:46:18;;;;;;;9.48;4.50;;;18.40;84.20;;;;;;5033648;28;20073;-72
2022/05/11 02:48:44;;;;;;;15.13;4.55;;;18.40;84.90;;;;;;5034166;28;20508;-72
2022/05/11 02:51:10;;;;;;;12.95;5.10;;;18.40;84.60;;;;;;5033942;28;20075;-71
2022/05/11 02:53:36;;;;;;;9.32;4.47;;;18.30;84.80;;;;;;5033711;28;20017;-72
2022/05/11 02:56:02;;;;;;;13.02;4.68;;;18.30;85.30;;;;;;5033684;28;20029;-73
2022/05/11 02:58:32;;;;;;;11.20;5.13;;;18.30;85.10;;;;;;5033552;28;20029;-72
2022/05/11 03:01:00;;;;;;;15.07;5.00;;;18.30;85.70;;;;;;5033722;28;20034;-72
2022/05/11 03:03:33;;;;;;;15.00;4.70;;;18.30;85.60;;;;;;5033640;28;20088;-72
2022/05/11 03:05:58;;;;;;;14.23;5.05;;;18.30;85.90;;;;;;5033287;28;20029;-72
2022/05/11 03:08:24;;;;;;;9.50;4.25;;;18.30;85.90;;;;;;5033363;28;20467;-72
2022/05/11 03:10:50;;;;;;;13.70;4.53;;;18.20;86.00;;;;;;5033583;28;20072;-73
2022/05/11 03:13:16;;;;;;;9.82;4.35;;;18.10;86.10;;;;;;5033170;28;20021;-72
2022/05/11 03:15:42;;;;;;;12.02;5.10;;;18.10;85.60;;;;;;5033173;28;20033;-72
2022/05/11 03:18:09;;;;;;;16.58;4.40;;;18.10;85.80;;;;;;5033148;28;20040;-73
2022/05/11 03:20:34;;;;;;;11.55;4.75;;;18.10;85.80;;;;;;5033465;28;20025;-73
2022/05/11 03:23:01;;;;;;;11.40;4.07;;;18.00;85.40;;;;;;5033475;28;20032;-72
2022/05/11 03:25:27;;;;;;;13.10;4.15;;;18.00;85.50;;;;;;5033016;28;20023;-72
2022/05/11 03:27:53;;;;;;;10.57;3.90;;;18.00;85.40;;;;;;5032051;28;20108;-72
2022/05/11 03:30:20;;;;;;;15.05;4.63;;;18.00;85.10;;;;;;5031908;28;20033;-73
2022/05/11 03:35:31;;;;;;;10.93;3.85;;;18.00;85.30;;;;;;5033108;28;20040;-73
2022/05/11 03:37:56;;;;;;;14.47;4.07;;;18.00;84.60;;;;;;5031632;28;20018;-73
2022/05/11 03:40:22;;;;;;;10.52;3.70;;;18.00;84.60;;;;;;5033233;28;20018;-72
2022/05/11 03:42:48;;;;;;;9.70;4.03;;;18.00;84.70;;;;;;5033185;28;20132;-71
2022/05/11 03:45:17;;;;;;;12.70;3.90;;;18.00;84.70;;;;;;5032415;28;20053;-73
2022/05/11 03:47:45;;;;;;;11.73;3.97;;;18.00;84.10;;;;;;5031585;28;20033;-73
2022/05/11 03:50:11;;;;;;;10.27;4.25;;;18.00;84.50;;;;;;5033139;28;20398;-72
2022/05/11 03:52:37;;;;;;;13.98;3.72;;;18.00;84.20;;;;;;5032663;28;20348;-72
2022/05/11 03:55:05;;;;;;;10.35;3.75;;;18.00;83.80;;;;;;5032618;28;20031;-72
2022/05/11 03:57:32;;;;;;;15.10;5.88;;;18.00;83.80;;;;;;5031533;28;20029;-72
2022/05/11 03:59:58;;;;;;;11.48;4.15;;;18.10;83.50;;;;;;5032768;28;20060;-71
2022/05/11 04:02:23;;;;;;;14.10;4.88;;;18.10;83.40;;;;;;5032859;28;20060;-73
2022/05/11 04:04:49;;;;;;;14.65;4.63;;;18.00;83.10;;;;;;5032572;28;20045;-73
2022/05/11 04:07:15;;;;;;;12.82;4.32;;;18.00;82.70;;;;;;5032759;28;20097;-72
2022/05/11 04:09:40;;;;;;;13.27;4.32;;;17.90;82.80;;;;;;5032472;28;20426;-72
2022/05/11 04:12:07;;;;;;;14.32;4.50;;;18.00;82.90;;;;;;5032639;28;20028;-72
2022/05/11 04:14:32;;;;;;;10.60;3.80;;;17.90;82.70;;;;;;5032494;28;20041;-72
2022/05/11 04:16:59;;;;;;;13.50;4.25;;;17.80;82.40;;;;;;5032557;28;20021;-71
2022/05/11 04:19:29;;;;;;;15.18;4.68;;;17.80;83.00;;;;;;5032400;28;20037;-73
2022/05/11 04:21:55;;;;;;;11.90;4.53;;;17.70;83.40;;;;;;5032712;28;20053;-73
2022/05/11 04:24:21;;;;;;;12.13;4.20;;;17.70;83.90;;;;;;5034215;28;20037;-74
2022/05/11 04:26:49;;;;;;;13.48;4.70;;;17.70;84.50;;;;;;5032821;28;20026;-73
2022/05/11 04:29:15;;;;;;;8.68;4.00;;;17.70;84.50;;;;;;5032817;28;20029;-73
2022/05/11 04:31:40;;;;;;;11.10;4.38;;;17.80;84.50;;;;;;5033170;28;20475;-73
2022/05/11 04:34:06;;;;;;;12.88;4.70;;;17.80;84.30;;;;;;5032526;28;20055;-72
2022/05/11 04:36:32;;;;;;;11.32;4.55;;;17.70;84.50;;;;;;5032728;28;20017;-73
2022/05/11 04:38:58;;;;;;;12.90;5.90;;;17.80;84.60;;;;;;5032459;28;20502;-72
2022/05/11 04:41:24;;;;;;;13.40;4.93;;;17.80;84.20;;;;;;5032612;28;20029;-71
2022/05/11 04:43:50;;;;;;;13.77;4.82;;;17.90;84.10;;;;;;5032527;28;20415;-73
2022/05/11 04:46:16;;;;;;;13.35;4.35;;;17.90;84.20;;;;;;5032344;28;20140;-72
2022/05/11 04:48:44;;;;;;;12.07;4.63;;;17.90;84.00;;;;;;5031689;28;20022;-73
2022/05/11 04:51:11;;;;;;;12.77;4.80;;;17.90;84.40;;;;;;5032245;28;20026;-73
2022/05/11 04:53:37;;;;;;;22.33;5.65;;;17.90;84.50;;;;;;5032479;28;20026;-73
2022/05/11 04:56:03;;;;;;;14.57;5.25;;;17.90;84.10;;;;;;5032512;28;20040;-73
2022/05/11 04:58:30;;;;;;;15.55;4.53;;;17.90;84.60;;;;;;5034592;28;20072;-72
2022/05/11 05:00:56;;;;;;;14.60;5.57;;;17.90;84.10;;;;;;5035775;28;20108;-72
2022/05/11 05:03:22;;;;;;;15.30;4.63;;;17.90;83.90;;;;;;5034520;28;20032;-73
2022/05/11 05:05:48;;;;;;;13.48;4.57;;;18.00;84.00;;;;;;5035944;28;20030;-73
2022/05/11 05:08:13;;;;;;;9.32;4.22;;;18.00;83.80;;;;;;5035581;28;20109;-73
2022/05/11 05:10:39;;;;;;;13.02;5.30;;;18.10;83.60;;;;;;5035733;28;20370;-73
2022/05/11 05:13:08;;;;;;;13.63;4.90;;;18.10;83.00;;;;;;5034407;28;20024;-73
2022/05/11 05:15:36;;;;;;;12.23;4.30;;;18.20;82.40;;;;;;5035508;28;20363;-72
2022/05/11 05:18:06;;;;;;;16.35;4.97;;;18.30;82.10;;;;;;5035694;28;20031;-72
2022/05/11 05:20:32;;;;;;;11.30;4.20;;;18.50;81.10;;;;;;5035734;28;20072;-72
2022/05/11 05:22:58;;;;;;;9.93;4.13;;;18.70;79.60;;;;;;5035580;28;20029;-71
2022/05/11 05:25:25;;;;;;;14.90;4.40;;;18.90;79.00;;;;;;5035214;28;20101;-71
2022/05/11 05:27:52;;;;;;;12.85;4.70;;;19.10;77.20;;;;;;5034254;28;20418;-72
2022/05/11 05:33:03;;;;;;;12.05;3.58;;;19.40;75.00;;;;;;5035604;28;20453;-73
2022/05/11 05:35:29;;;;;;;10.98;3.83;;;19.50;73.90;;;;;;5034846;28;20030;-74
2022/05/11 05:37:55;;;;;;;12.70;3.90;;;19.70;73.20;;;;;;5034674;28;20108;-71
2022/05/11 05:40:21;;;;;;;11.13;4.20;;;19.90;72.00;;;;;;5034845;28;20064;-72
2022/05/11 05:42:47;;;;;;;18.92;8.23;;;20.00;71.40;;;;;;5034751;28;20095;-72
2022/05/11 05:45:13;;;;;;;20.10;5.47;;;20.20;70.80;;;;;;5034626;28;20063;-73
2022/05/11 05:47:39;;;;;;;11.73;4.15;;;20.30;70.40;;;;;;5034950;28;20026;-73
2022/05/11 05:50:06;;;;;;;13.40;4.50;;;20.50;69.80;;;;;;5034751;28;20072;-72
2022/05/11 05:52:32;;;;;;;10.35;4.20;;;20.70;69.50;;;;;;5034615;28;20036;-72
2022/05/11 05:54:59;;;;;;;14.13;4.35;;;20.70;68.80;;;;;;5034691;28;20053;-72
2022/05/11 05:57:26;;;;;;;19.80;4.68;;;20.80;69.00;;;;;;5034676;28;20029;-70
2022/05/11 05:59:52;;;;;;;10.60;4.40;;;20.80;68.70;;;;;;5034305;28;20037;-74
2022/05/11 06:02:17;;;;;;;12.32;4.50;;;20.80;68.90;;;;;;5034691;28;20124;-75
2022/05/11 06:04:49;;;;;;;15.23;4.25;;;20.80;69.00;;;;;;5033004;28;20056;-74
2022/05/11 06:07:17;;;;;;;11.32;4.18;;;21.00;68.90;;;;;;5034684;28;20025;-73
2022/05/11 06:09:43;;;;;;;13.52;4.43;;;21.10;68.00;;;;;;5034213;28;20041;-73
2022/05/11 06:12:12;;;;;;;10.13;3.60;;;21.10;67.30;;;;;;5034252;28;20032;-74
2022/05/11 06:14:38;;;;;;;14.07;3.90;;;21.30;66.00;;;;;;5034247;28;20072;-74
2022/05/11 06:17:11;;;;;;;12.13;4.65;;;21.40;66.50;;;;;;5034239;28;20028;-74
2022/05/11 06:19:39;;;;;;;13.30;4.45;;;21.70;66.60;;;;;;5034227;28;20037;-72
2022/05/11 06:22:04;;;;;;;14.15;3.75;;;21.80;65.80;;;;;;5034136;28;20422;-74
2022/05/11 06:24:30;;;;;;;14.07;4.40;;;21.90;65.40;;;;;;5033869;28;20030;-74
2022/05/11 06:26:56;;;;;;;16.35;4.47;;;21.90;64.80;;;;;;5034117;28;20022;-72
2022/05/11 06:29:22;;;;;;;17.92;4.45;;;22.00;64.60;;;;;;5034082;28;20147;-73
2022/05/11 06:31:48;;;;;;;26.35;4.53;;;21.90;64.30;;;;;;5034306;28;20022;-73
2022/05/11 06:34:15;;;;;;;16.70;4.47;;;21.80;64.00;;;;;;5033730;28;20112;-72
2022/05/11 06:36:42;;;;;;;11.35;3.65;;;21.80;64.40;;;;;;5034096;28;20493;-73
2022/05/11 06:39:09;;;;;;;31.00;5.43;;;21.90;63.30;;;;;;5033726;28;20047;-74
2022/05/11 06:41:35;;;;;;;31.40;6.82;;;21.90;63.40;;;;;;5034008;28;20067;-75
2022/05/11 06:44:02;;;;;;;291.70;27.70;;;22.00;62.70;;;;;;5033729;28;20021;-74
2022/05/11 06:46:27;;;;;;;51.50;7.15;;;22.20;62.70;;;;;;5033387;28;20060;-75
2022/05/11 06:48:53;;;;;;;43.70;7.28;;;22.40;62.30;;;;;;5033895;28;20017;-74
2022/05/11 06:51:20;;;;;;;16.88;4.03;;;22.50;61.90;;;;;;5033420;28;20040;-74
2022/05/11 06:59:20;;;;;;;13.48;4.22;;;22.90;60.50;;;;;;5033888;28;20111;-74
2022/05/11 07:01:54;;;;;;;12.13;4.00;;;23.20;60.70;;;;;;5033835;28;20025;-74
2022/05/11 07:04:23;;;;;;;17.63;4.45;;;23.20;59.90;;;;;;5033503;28;20104;-74
2022/05/11 07:06:53;;;;;;;10.23;4.00;;;23.30;59.90;;;;;;5033242;28;20025;-75
2022/05/11 07:09:21;;;;;;;13.75;3.92;;;23.30;59.60;;;;;;5033035;28;20037;-76
2022/05/11 07:14:31;;;;;;;18.52;8.10;;;23.30;59.50;;;;;;5035538;28;20395;-76
2022/05/11 07:16:57;;;;;;;12.85;4.53;;;23.40;59.40;;;;;;5033320;28;20018;-74
2022/05/11 07:19:23;;;;;;;17.30;4.65;;;23.70;59.40;;;;;;5033386;28;20044;-73
2022/05/11 07:21:50;;;;;;;16.05;4.13;;;23.60;58.70;;;;;;5032470;28;20030;-74
2022/05/11 07:24:16;;;;;;;14.27;4.10;;;23.70;59.30;;;;;;5031549;28;20038;-72
2022/05/11 07:26:42;;;;;;;11.02;4.13;;;23.90;59.20;;;;;;5033347;28;20075;-74
2022/05/11 07:29:08;;;;;;;15.85;5.15;;;24.00;58.50;;;;;;5031833;28;20037;-73
2022/05/11 07:31:34;;;;;;;20.80;5.50;;;24.00;58.80;;;;;;5033599;28;20033;-72
2022/05/11 07:33:59;;;;;;;14.60;4.82;;;24.00;58.10;;;;;;5033224;28;20065;-74
2022/05/11 07:36:25;;;;;;;12.77;3.92;;;24.00;57.80;;;;;;5032020;28;20021;-73
2022/05/11 07:38:52;;;;;;;13.32;4.07;;;23.80;57.70;;;;;;5033255;28;20479;-74
2022/05/11 07:41:19;;;;;;;17.95;4.80;;;23.70;57.70;;;;;;5032733;28;20487;-73
2022/05/11 07:43:45;;;;;;;13.30;4.32;;;23.90;57.90;;;;;;5032821;28;20021;-73
2022/05/11 07:46:10;;;;;;;14.48;4.43;;;23.90;57.40;;;;;;5032590;28;20479;-73
2022/05/11 07:48:37;;;;;;;23.65;4.50;;;23.90;57.50;;;;;;5031288;28;20057;-74
2022/05/11 07:51:03;;;;;;;12.82;4.10;;;24.00;57.10;;;;;;5032490;28;20104;-75
2022/05/11 07:53:29;;;;;;;11.70;4.55;;;24.00;57.00;;;;;;5032893;28;20053;-73
2022/05/11 08:01:24;;;;;;;19.08;4.72;;;23.90;56.70;;;;;;5032850;28;20051;-74
2022/05/11 08:03:50;;;;;;;19.95;4.13;;;24.00;56.40;;;;;;5031502;28;20507;-75
2022/05/11 08:06:16;;;;;;;12.88;4.40;;;24.00;56.80;;;;;;5031734;28;20021;-74
2022/05/11 08:08:42;;;;;;;12.00;3.95;;;24.10;56.70;;;;;;5031339;28;20030;-73
2022/05/11 08:11:08;;;;;;;9.98;3.63;;;24.20;56.30;;;;;;5032532;28;20041;-73
2022/05/11 08:13:34;;;;;;;10.05;4.38;;;24.10;56.20;;;;;;5032634;28;20465;-74
2022/05/11 08:16:01;;;;;;;12.82;4.15;;;24.10;56.20;;;;;;5032641;28;20025;-74
2022/05/11 08:18:27;;;;;;;11.35;3.83;;;24.10;56.10;;;;;;5033685;28;20033;-75
2022/05/11 08:20:53;;;;;;;9.85;3.90;;;24.00;55.20;;;;;;5033359;28;20471;-74
2022/05/11 08:23:20;;;;;;;12.27;4.03;;;23.90;55.60;;;;;;5032636;28;20056;-75
2022/05/11 08:25:46;;;;;;;12.18;3.70;;;23.70;55.40;;;;;;5032536;28;20394;-75
2022/05/11 08:28:17;;;;;;;9.32;3.40;;;23.70;55.70;;;;;;5032401;28;20490;-74
2022/05/11 08:33:31;;;;;;;18.20;4.78;;;23.60;55.90;;;;;;5036610;28;20119;-74
2022/05/11 08:36:00;;;;;;;12.55;4.05;;;23.70;55.70;;;;;;5034566;28;20159;-73
2022/05/11 08:38:30;;;;;;;14.07;3.55;;;23.70;55.60;;;;;;5036113;28;20032;-73
2022/05/11 08:41:23;;;;;;;10.38;3.67;;;23.70;55.70;;;;;;5036128;28;20053;-73
2022/05/11 08:43:50;;;;;;;13.55;3.80;;;23.80;54.40;;;;;;5036233;28;20024;-74
2022/05/11 08:46:38;;;;;;;12.32;4.57;;;23.90;55.50;;;;;;5035813;28;20187;-74
2022/05/11 08:49:32;;;;;;;11.45;4.00;;;23.90;54.20;;;;;;5035784;28;20061;-73
2022/05/11 08:52:04;;;;;;;11.50;3.72;;;24.00;54.50;;;;;;5036492;28;20022;-74
2022/05/11 08:54:53;;;;;;;11.73;4.35;;;24.10;55.30;;;;;;5035891;28;20024;-72
2022/05/11 08:57:25;;;;;;;12.80;3.97;;;24.20;55.70;;;;;;5035886;28;20033;-73
2022/05/11 08:59:59;;;;;;;13.68;3.88;;;24.20;56.00;;;;;;5035558;28;20044;-73
2022/05/11 09:02:28;;;;;;;12.95;3.38;;;24.20;55.80;;;;;;5034673;28;20034;-73
2022/05/11 09:04:58;;;;;;;14.82;4.68;;;24.20;55.60;;;;;;5035562;28;20041;-73
2022/05/11 09:07:25;;;;;;;13.68;4.55;;;24.30;55.70;;;;;;5035718;28;20052;-73
2022/05/11 09:09:53;;;;;;;13.43;4.20;;;24.40;55.60;;;;;;5035574;28;20022;-73
2022/05/11 09:12:19;;;;;;;15.68;4.45;;;24.40;54.90;;;;;;5035286;28;20025;-73
2022/05/11 09:14:50;;;;;;;14.48;5.25;;;24.30;54.60;;;;;;5035216;28;20021;-73
2022/05/11 09:17:26;;;;;;;24.45;5.53;;;24.40;54.90;;;;;;5035389;28;20053;-72
2022/05/11 09:20:12;;;;;;;22.70;5.30;;;24.40;54.50;;;;;;5035292;28;20478;-73
2022/05/11 09:22:54;;;;;;;12.95;4.82;;;24.50;54.80;;;;;;5035433;28;20158;-74
2022/05/11 09:25:26;;;;;;;14.77;4.53;;;24.60;55.40;;;;;;5035189;28;20082;-73
2022/05/11 09:28:11;;;;;;;11.35;4.50;;;24.60;55.10;;;;;;5035342;28;20163;-73
2022/05/11 09:30:38;;;;;;;11.52;4.60;;;24.70;55.50;;;;;;5035087;28;20104;-73
2022/05/11 09:33:16;;;;;;;17.95;5.40;;;24.70;55.10;;;;;;5035038;28;20029;-73
2022/05/11 09:35:42;;;;;;;14.32;5.05;;;24.70;54.60;;;;;;5035075;28;20032;-72
2022/05/11 09:38:17;;;;;;;9.30;4.82;;;24.80;55.10;;;;;;5035021;28;20100;-73
2022/05/11 09:40:53;;;;;;;12.45;5.40;;;24.80;54.60;;;;;;5034922;28;20151;-75
2022/05/11 09:43:58;;;;;;;18.48;6.10;;;24.80;54.50;;;;;;5034143;28;20438;-72
2022/05/11 09:46:27;;;;;;;22.98;6.03;;;24.90;54.70;;;;;;5012628;28;20054;-74
2022/05/11 09:49:01;;;;;;;13.05;4.50;;;25.00;54.00;;;;;;5013307;28;20460;-74
2022/05/11 09:51:44;;;;;;;13.05;4.53;;;25.00;53.60;;;;;;5024321;28;20037;-74
2022/05/11 09:54:22;;;;;;;16.27;4.45;;;25.00;53.30;;;;;;5033403;28;20080;-74
2022/05/11 09:57:02;;;;;;;17.08;5.20;;;25.10;53.60;;;;;;5034986;28;20053;-75
2022/05/11 09:59:37;;;;;;;17.92;4.85;;;25.10;53.40;;;;;;5034729;28;20072;-74
2022/05/11 10:02:27;;;;;;;18.30;5.22;;;25.30;53.30;;;;;;5034616;28;20113;-73
2022/05/11 10:05:28;;;;;;;22.02;5.88;;;25.30;53.50;;;;;;5034929;28;20021;-74
2022/05/11 10:08:22;;;;;;;24.33;5.10;;;25.40;53.60;;;;;;5023472;28;20033;-73
2022/05/11 10:10:56;;;;;;;15.13;4.85;;;25.50;53.60;;;;;;5033390;28;20071;-73
2022/05/11 10:13:33;;;;;;;27.08;10.93;;;25.60;53.50;;;;;;5034567;28;20155;-74
2022/05/11 10:22:31;;;;;;;19.95;6.50;;;25.70;52.90;;;;;;5034560;28;20355;-74
2022/05/11 10:25:10;;;;;;;24.05;5.72;;;25.80;52.00;;;;;;5034284;28;20419;-73
2022/05/11 10:27:46;;;;;;;18.08;5.38;;;25.80;51.30;;;;;;5034085;28;20048;-75
2022/05/11 10:30:25;;;;;;;17.70;5.88;;;25.90;51.30;;;;;;5034315;28;20528;-73
2022/05/11 10:33:12;;;;;;;16.33;5.32;;;26.00;51.10;;;;;;5034274;28;20406;-73
2022/05/11 10:35:57;;;;;;;21.90;5.80;;;26.10;50.60;;;;;;5034600;28;20022;-74
2022/05/11 10:38:55;;;;;;;13.50;4.95;;;26.20;51.00;;;;;;5034994;28;20036;-73
2022/05/11 10:41:41;;;;;;;15.38;5.45;;;26.30;49.00;;;;;;5033912;28;20036;-73
2022/05/11 10:44:16;;;;;;;12.98;5.30;;;26.30;49.50;;;;;;5033817;28;20044;-73
2022/05/11 10:47:09;;;;;;;15.30;4.80;;;26.40;49.40;;;;;;5033883;28;20030;-71
2022/05/11 10:49:53;;;;;;;17.42;5.40;;;26.40;48.20;;;;;;5033836;28;20013;-74
2022/05/11 10:53:00;;;;;;;16.50;5.70;;;26.40;47.90;;;;;;5033853;28;20088;-75
2022/05/11 10:55:56;;;;;;;23.38;6.43;;;26.50;48.50;;;;;;5031562;28;20044;-74
2022/05/11 10:58:37;;;;;;;33.67;6.25;;;26.60;47.50;;;;;;5033558;28;20037;-73
2022/05/11 11:01:15;;;;;;;18.63;5.75;;;26.80;47.50;;;;;;5033814;28;20025;-74
2022/05/11 11:03:59;;;;;;;17.17;5.05;;;26.80;49.60;;;;;;5034531;28;20099;-74
2022/05/11 11:09:48;;;;;;;25.38;6.18;;;26.90;52.00;;;;;;5033477;28;20064;-74
2022/05/11 11:12:28;;;;;;;15.88;5.88;;;26.90;51.80;;;;;;5033592;28;20446;-74
2022/05/11 11:14:58;;;;;;;14.68;5.68;;;27.00;52.50;;;;;;5033517;28;20128;-73
2022/05/11 11:17:26;;;;;;;13.27;5.93;;;27.10;52.90;;;;;;5033475;28;20021;-73
2022/05/11 11:20:00;;;;;;;13.75;5.43;;;27.10;52.80;;;;;;5033126;28;20029;-74
2022/05/11 11:22:25;;;;;;;17.05;5.63;;;27.10;52.80;;;;;;5032381;28;20198;-75
2022/05/11 11:25:10;;;;;;;17.17;5.60;;;27.10;52.60;;;;;;5033303;28;20061;-74
2022/05/11 11:28:01;;;;;;;13.73;5.38;;;27.10;52.90;;;;;;5033479;28;20049;-74
2022/05/11 11:30:27;;;;;;;12.15;5.03;;;27.20;52.00;;;;;;5033107;28;20104;-74
2022/05/11 11:33:12;;;;;;;14.27;5.18;;;27.20;52.50;;;;;;5033020;28;20117;-74
2022/05/11 11:35:54;;;;;;;16.27;5.80;;;27.20;52.40;;;;;;5033333;28;20099;-76
2022/05/11 11:38:41;;;;;;;10.63;5.38;;;27.20;52.50;;;;;;5031818;28;20116;-74
2022/05/11 11:41:17;;;;;;;17.00;5.53;;;27.20;51.60;;;;;;5033272;28;20056;-73
2022/05/11 11:43:55;;;;;;;11.85;4.57;;;27.20;52.40;;;;;;5032992;28;20036;-74
2022/05/11 11:46:27;;;;;;;12.07;5.60;;;27.20;52.40;;;;;;5032520;28;20057;-72
2022/05/11 11:49:07;;;;;;;15.43;6.10;;;27.20;52.40;;;;;;5031131;28;20490;-73
2022/05/11 11:52:03;;;;;;;14.90;5.90;;;27.20;51.20;;;;;;5032640;28;20025;-73
2022/05/11 11:54:37;;;;;;;10.70;5.07;;;27.20;51.00;;;;;;5030561;28;20076;-75
2022/05/11 11:57:16;;;;;;;17.38;6.07;;;27.30;51.10;;;;;;5032581;28;20374;-74
2022/05/11 11:59:49;;;;;;;24.27;6.18;;;27.30;50.70;;;;;;5032980;28;20038;-74
2022/05/11 12:02:28;;;;;;;9.27;4.78;;;27.30;50.40;;;;;;5032382;28;20033;-75
2022/05/11 12:05:11;;;;;;;18.80;5.65;;;27.30;51.70;;;;;;5032391;28;20025;-73
2022/05/11 12:16:53;;;;;;;13.13;5.22;;;27.40;50.70;;;;;;5036498;28;20057;-74
2022/05/11 12:19:21;;;;;;;11.85;4.93;;;27.40;50.20;;;;;;5036238;28;20049;-73
2022/05/11 12:22:12;;;;;;;12.68;5.15;;;27.40;51.40;;;;;;5036236;28;20018;-73
2022/05/11 12:24:44;;;;;;;14.10;5.85;;;27.50;49.80;;;;;;5036563;28;20463;-74
2022/05/11 12:27:21;;;;;;;12.73;5.18;;;27.60;50.90;;;;;;5036384;28;20056;-76
2022/05/11 12:29:57;;;;;;;16.13;5.53;;;27.60;50.80;;;;;;5036709;28;20033;-74
2022/05/11 12:32:38;;;;;;;13.02;5.35;;;27.60;50.80;;;;;;5036601;28;20428;-74
2022/05/11 12:35:12;;;;;;;10.23;5.20;;;27.60;50.60;;;;;;5036361;28;20037;-73
2022/05/11 12:37:39;;;;;;;13.57;5.50;;;27.60;48.70;;;;;;5034802;28;20475;-74
2022/05/11 12:40:15;;;;;;;17.58;5.90;;;27.70;50.20;;;;;;5035979;28;20071;-74
2022/05/11 12:42:42;;;;;;;19.60;6.45;;;27.60;48.60;;;;;;5036056;28;20347;-74
2022/05/11 12:45:11;;;;;;;13.43;6.20;;;27.60;50.10;;;;;;5035872;28;20111;-75
2022/05/11 12:47:44;;;;;;;15.45;5.93;;;27.60;50.40;;;;;;5036497;28;20446;-74
2022/05/11 12:50:17;;;;;;;15.57;5.78;;;27.60;50.20;;;;;;5035776;28;20033;-74
2022/05/11 12:52:43;;;;;;;12.45;5.18;;;27.60;50.30;;;;;;5036064;28;20029;-74
2022/05/11 12:55:09;;;;;;;16.25;4.90;;;27.70;50.20;;;;;;5035723;28;20021;-74
2022/05/11 12:57:39;;;;;;;16.75;5.43;;;27.80;50.20;;;;;;5036078;28;20033;-74
2022/05/11 13:00:18;;;;;;;14.10;5.03;;;27.80;50.50;;;;;;5035722;28;20486;-75
2022/05/11 13:02:45;;;;;;;13.63;6.70;;;27.80;50.20;;;;;;5035933;28;20051;-74
2022/05/11 13:05:15;;;;;;;15.00;4.95;;;27.80;49.80;;;;;;5036152;28;20018;-75
2022/05/11 13:08:01;;;;;;;18.98;6.30;;;27.70;49.80;;;;;;5036270;28;20040;-73
2022/05/11 13:10:33;;;;;;;13.57;5.20;;;27.60;48.20;;;;;;5035685;28;20026;-74
2022/05/11 13:13:01;;;;;;;13.83;5.70;;;27.50;49.40;;;;;;5034324;28;20029;-73
2022/05/11 13:15:45;;;;;;;16.90;5.15;;;27.50;49.80;;;;;;5035721;28;20413;-73
2022/05/11 13:18:26;;;;;;;13.93;5.15;;;27.60;49.60;;;;;;5034664;28;20464;-75
2022/05/11 13:20:54;;;;;;;15.45;5.65;;;27.70;49.50;;;;;;5035823;28;20033;-75
2022/05/11 13:23:29;;;;;;;16.67;5.43;;;27.70;49.30;;;;;;5034627;28;20471;-73
2022/05/11 13:25:57;;;;;;;15.82;5.15;;;27.70;49.30;;;;;;5035400;28;20025;-74
2022/05/11 13:28:27;;;;;;;15.93;5.50;;;27.70;49.00;;;;;;5035341;28;20074;-75
2022/05/11 13:30:56;;;;;;;13.80;5.13;;;27.80;49.20;;;;;;5035355;28;20100;-74
2022/05/11 13:33:35;;;;;;;13.40;4.68;;;27.80;49.30;;;;;;5033789;28;20478;-75
2022/05/11 13:36:28;;;;;;;12.10;4.95;;;27.90;49.30;;;;;;5034936;28;20032;-74
2022/05/11 13:39:03;;;;;;;14.45;5.32;;;27.90;49.20;;;;;;5032739;28;20033;-75
2022/05/11 13:41:37;;;;;;;12.88;5.68;;;27.80;47.30;;;;;;5035235;28;20036;-75
2022/05/11 13:44:30;;;;;;;13.30;4.93;;;27.80;49.30;;;;;;5035551;28;20021;-73
2022/05/11 13:49:44;;;;;;;13.68;4.68;;;27.80;48.30;;;;;;5035083;28;20040;-74
2022/05/11 13:52:30;;;;;;;13.73;4.20;;;27.80;49.70;;;;;;5034797;28;20113;-73